Energy Zeus — WDD3941 — position and weather

sailwx.info

Track history (hours):
 
Tides and Currents Weather Stations Pressure Air Temp Water Temp Dewpoint Dewpoint Depression Visibility Wind Speed Wind Dir Waves Ship Positions

Energy Zeus

Owner: Seabulk Towing Services, Inc., Fort Lauderdale, FL. More information available from US FCC via Universal Licensing System and Coast Guard Vessel Documentation Center.

Last reported at 2018-May-27 03:30 UTC. Time now 2018-May-27 03:35 UTC.
Position N 30°13' W 093°15'.

Length 30 m; draft 4 m.

Type: Tug. MMSI: 367138360.

Date/timePositionNaut miles runAvg speedWind from/ knotsBaromVisibWave heightAir tempDewpointWater temp
2018-May-27 03:30N 30°13' W 093°15'0 0.0
2018-May-27 03:00N 30°13' W 093°15'0 0.0
2018-May-27 02:30N 30°13' W 093°15'0 0.0
2018-May-27 02:00N 30°13' W 093°15'0 0.0
2018-May-27 01:30N 30°13' W 093°15'0 0.0
2018-May-27 00:57N 30°13' W 093°15'0 0.0
2018-May-27 00:30N 30°13' W 093°15'0 0.0
2018-May-27 00:00N 30°13' W 093°15'0 0.0
2018-May-26 23:30N 30°13' W 093°15'3 6.7
2018-May-26 23:00N 30°11' W 093°19'2 3.8
2018-May-26 22:30N 30°09' W 093°20'0 0.0
2018-May-26 22:00N 30°09' W 093°20'1 2.4
2018-May-26 21:30N 30°08' W 093°20'3 5.4
2018-May-26 21:00N 30°05' W 093°19'2 4.4
2018-May-26 20:30N 30°03' W 093°20'2 3.9
2018-May-26 20:00N 30°05' W 093°20'2 4.4
2018-May-26 19:30N 30°06' W 093°17'0 0.0
2018-May-26 19:00N 30°06' W 093°17'0 0.0
2018-May-26 18:30N 30°06' W 093°17'0 0.0
2018-May-26 17:59N 30°06' W 093°17'0 0.9
2018-May-26 17:30N 30°07' W 093°18'2 4.8
2018-May-26 17:00N 30°08' W 093°20'1 2.7
2018-May-26 16:30N 30°10' W 093°20'0 0.1
2018-May-26 16:00N 30°10' W 093°20'1 2.0
2018-May-26 15:30N 30°09' W 093°20'3 5.5
2018-May-26 15:00N 30°06' W 093°20'2 4.1
2018-May-26 14:30N 30°04' W 093°20'0 0.1
2018-May-26 14:00N 30°04' W 093°20'1 2.2
2018-May-26 13:30N 30°05' W 093°20'3 5.0
2018-May-26 13:00N 30°06' W 093°17'0 0.0
2018-May-26 12:29N 30°06' W 093°17'0 0.0
2018-May-26 11:57N 30°06' W 093°17'0 0.0
2018-May-26 11:30N 30°06' W 093°17'0 0.0
2018-May-26 11:00N 30°06' W 093°17'0 0.0
2018-May-26 10:30N 30°06' W 093°17'0 0.0
2018-May-26 10:00N 30°06' W 093°17'0 0.0
2018-May-26 09:30N 30°06' W 093°17'0 0.0
2018-May-26 09:00N 30°06' W 093°17'0 0.0
2018-May-26 08:30N 30°06' W 093°17'0 0.0
2018-May-26 08:00N 30°06' W 093°17'0 0.0
2018-May-26 07:27N 30°06' W 093°17'0 0.0
2018-May-26 07:00N 30°06' W 093°17'0 0.0
2018-May-26 06:30N 30°06' W 093°17'0 0.0
2018-May-26 05:30N 30°06' W 093°17'0 0.0
2018-May-26 05:00N 30°06' W 093°17'0 0.0
2018-May-26 04:30N 30°06' W 093°17'0 0.0
2018-May-26 04:00N 30°06' W 093°17'0 0.0
2018-May-26 03:30N 30°06' W 093°17'0 0.0
2018-May-26 03:00N 30°06' W 093°17'0 0.0
2018-May-26 02:30N 30°06' W 093°17'2 3.4
2018-May-26 02:00N 30°06' W 093°19'4 7.6
2018-May-26 01:30N 30°09' W 093°20'4 7.4
2018-May-26 01:00N 30°12' W 093°17'1 1.8
2018-May-26 00:25N 30°13' W 093°17'0 0.1
2018-May-26 00:00N 30°13' W 093°17'1 2.5
2018-May-25 23:30N 30°13' W 093°15'0 0.0
2018-May-25 23:00N 30°13' W 093°15'0 0.5
2018-May-25 22:20N 30°13' W 093°15'0 0.0
2018-May-25 21:56N 30°13' W 093°15'0 0.0
2018-May-25 21:29N 30°13' W 093°15'0 0.0
2018-May-25 20:50N 30°13' W 093°15'0 0.0
2018-May-25 20:11N 30°13' W 093°15'0 0.0
2018-May-25 19:53N 30°13' W 093°15'0 0.0
2018-May-25 16:39N 30°13' W 093°15'1 6.3
2018-May-25 16:30N 30°12' W 093°16'4 7.2
2018-May-25 16:00N 30°10' W 093°19'0 0.1
2018-May-25 15:30N 30°10' W 093°19'0 1.0
2018-May-25 15:01N 30°11' W 093°19'0 1.0
2018-May-25 14:30N 30°10' W 093°19'4 7.1
2018-May-25 14:01N 30°07' W 093°20'2 4.4
2018-May-25 13:30N 30°06' W 093°17'0 0.0
2018-May-25 13:00N 30°06' W 093°17'0 0.0
2018-May-25 12:30N 30°06' W 093°17'0 0.0
2018-May-25 12:00N 30°06' W 093°17'0 0.0
2018-May-25 11:30N 30°06' W 093°17'0 0.0
2018-May-25 10:57N 30°06' W 093°17'0 0.0
2018-May-25 10:30N 30°06' W 093°17'0 0.0
2018-May-25 10:00N 30°06' W 093°17'0 0.0
2018-May-25 09:30N 30°06' W 093°17'0 0.0
2018-May-25 09:00N 30°06' W 093°17'0 0.0
2018-May-25 08:30N 30°06' W 093°17'0 0.0
2018-May-25 08:00N 30°06' W 093°17'0 0.0
2018-May-25 07:30N 30°06' W 093°17'0 0.0
2018-May-25 07:00N 30°06' W 093°17'0 0.0
2018-May-25 06:30N 30°06' W 093°17'0 0.0
2018-May-25 06:00N 30°06' W 093°17'0 0.0
2018-May-25 05:30N 30°06' W 093°17'0 0.0
2018-May-25 05:00N 30°06' W 093°17'0 0.0
2018-May-25 04:30N 30°06' W 093°17'0 0.0
2018-May-25 04:00N 30°06' W 093°17'0 0.0
2018-May-25 03:30N 30°06' W 093°17'0 0.0
2018-May-25 03:00N 30°06' W 093°17'0 0.0
2018-May-25 02:30N 30°06' W 093°17'0 0.0
2018-May-25 02:00N 30°06' W 093°17'0 0.0
2018-May-25 01:30N 30°06' W 093°17'0 0.0
2018-May-25 01:00N 30°06' W 093°17'0 0.0
2018-May-25 00:30N 30°06' W 093°17'0 0.0
2018-May-25 00:00N 30°06' W 093°17'0 0.0
2018-May-24 23:30N 30°06' W 093°17'0 0.0
2018-May-24 23:00N 30°06' W 093°17'0 0.1
2018-May-24 22:30N 30°07' W 093°17'0 0.5
2018-May-24 22:00N 30°07' W 093°18'1 2.5
2018-May-24 21:30N 30°06' W 093°19'3 6.3
2018-May-24 21:00N 30°09' W 093°20'4 8.0
2018-May-24 20:30N 30°12' W 093°17'2 3.2
2018-May-24 19:58N 30°13' W 093°15'0 0.0
2018-May-24 19:25N 30°13' W 093°15'0 0.0
2018-May-24 18:52N 30°13' W 093°15'0 0.0
2018-May-24 18:28N 30°13' W 093°15'0 0.0
2018-May-24 17:55N 30°13' W 093°15'0 0.0
2018-May-24 17:16N 30°13' W 093°15'0 0.0
2018-May-24 16:58N 30°13' W 093°15'0 0.0
2018-May-24 16:28N 30°13' W 093°15'0 0.0
2018-May-24 15:55N 30°13' W 093°15'0 0.0
2018-May-24 15:28N 30°13' W 093°15'0 0.0
2018-May-24 14:58N 30°13' W 093°15'0 0.0
2018-May-24 14:28N 30°13' W 093°15'0 0.0
2018-May-24 13:58N 30°13' W 093°15'0 0.0
2018-May-24 08:37N 30°13' W 093°15'0 0.0
2018-May-24 03:49N 30°13' W 093°15'0 0.0
2018-May-24 03:19N 30°13' W 093°15'0 1.3
2018-May-24 03:00N 30°13' W 093°16'4 7.7
2018-May-24 02:30N 30°10' W 093°19'0 0.0
2018-May-24 02:00N 30°10' W 093°19'0 0.6
2018-May-24 01:30N 30°11' W 093°19'0 0.6
2018-May-24 01:00N 30°10' W 093°19'2 4.8
2018-May-24 00:30N 30°08' W 093°20'0 1.0
2018-May-24 00:00N 30°08' W 093°20'2 3.6
2018-May-23 23:30N 30°06' W 093°19'1 2.1
2018-May-23 22:58N 30°06' W 093°17'0 0.0
2018-May-23 22:28N 30°06' W 093°17'0 0.0
2018-May-23 21:58N 30°06' W 093°17'0 0.0
2018-May-23 21:28N 30°06' W 093°17'0 0.0
2018-May-23 20:58N 30°06' W 093°17'0 0.0
2018-May-23 20:28N 30°06' W 093°17'0 0.0
2018-May-23 19:58N 30°06' W 093°17'0 0.0
2018-May-23 19:28N 30°06' W 093°17'0 0.0
2018-May-23 18:58N 30°06' W 093°17'0 0.0
2018-May-23 18:28N 30°06' W 093°17'0 0.0
2018-May-23 17:58N 30°06' W 093°17'0 0.0
2018-May-23 17:28N 30°06' W 093°17'0 0.0
2018-May-23 16:58N 30°06' W 093°17'0 0.0
2018-May-23 16:28N 30°06' W 093°17'0 0.0
2018-May-23 15:58N 30°06' W 093°17'0 0.0
2018-May-23 15:28N 30°06' W 093°17'0 0.0
2018-May-23 14:58N 30°06' W 093°17'0 0.0
2018-May-23 14:28N 30°06' W 093°17'0 0.0
2018-May-23 13:58N 30°06' W 093°17'0 0.0
2018-May-23 13:28N 30°06' W 093°17'0 0.0
2018-May-23 12:58N 30°06' W 093°17'0 0.0
2018-May-23 12:28N 30°06' W 093°17'0 0.0
2018-May-23 11:58N 30°06' W 093°17'0 0.0
2018-May-23 11:28N 30°06' W 093°17'0 0.0
2018-May-23 10:58N 30°06' W 093°17'0 0.0
2018-May-23 10:28N 30°06' W 093°17'0 0.0
2018-May-23 09:58N 30°06' W 093°17'0 0.0
2018-May-23 09:28N 30°06' W 093°17'0 0.0
2018-May-23 08:58N 30°06' W 093°17'0 0.0
2018-May-23 08:28N 30°06' W 093°17'0 0.0
2018-May-23 07:58N 30°06' W 093°17'0 0.0
2018-May-23 07:28N 30°06' W 093°17'0 0.0
2018-May-23 06:58N 30°06' W 093°17'0 0.0
2018-May-23 06:28N 30°06' W 093°17'0 0.0
2018-May-23 05:58N 30°06' W 093°17'0 0.0
2018-May-23 05:28N 30°06' W 093°17'0 0.0
2018-May-23 04:58N 30°06' W 093°17'0 0.0
2018-May-23 04:28N 30°06' W 093°17'0 0.0
2018-May-23 03:58N 30°06' W 093°17'0 0.0
2018-May-23 03:28N 30°06' W 093°17'0 0.0
2018-May-23 02:58N 30°06' W 093°17'0 0.0
2018-May-23 02:28N 30°06' W 093°17'0 0.0
2018-May-23 01:55N 30°06' W 093°17'0 0.0
2018-May-23 01:28N 30°06' W 093°17'0 0.0
2018-May-23 00:58N 30°06' W 093°17'0 0.0
2018-May-23 00:28N 30°06' W 093°17'0 0.0
2018-May-22 23:55N 30°06' W 093°17'0 0.0
2018-May-22 23:28N 30°06' W 093°17'0 0.0
2018-May-22 22:58N 30°06' W 093°17'0 0.0
2018-May-22 22:25N 30°06' W 093°17'0 0.0
2018-May-22 21:58N 30°06' W 093°17'0 0.0
2018-May-22 21:28N 30°06' W 093°17'0 0.0
2018-May-22 20:58N 30°06' W 093°17'0 0.0
2018-May-22 20:28N 30°06' W 093°17'0 0.0
2018-May-22 19:58N 30°06' W 093°17'0 0.0
2018-May-22 19:28N 30°06' W 093°17'0 0.0
2018-May-22 18:58N 30°06' W 093°17'0 0.0
2018-May-22 18:28N 30°06' W 093°17'0 0.0
2018-May-22 17:58N 30°06' W 093°17'0 0.0
2018-May-22 17:28N 30°06' W 093°17'0 0.0
2018-May-22 16:58N 30°06' W 093°17'0 0.0
2018-May-22 16:28N 30°06' W 093°17'0 0.0
2018-May-22 15:58N 30°06' W 093°17'0 0.0
2018-May-22 15:28N 30°06' W 093°17'0 0.0
2018-May-22 14:58N 30°06' W 093°17'0 0.0
2018-May-22 14:28N 30°06' W 093°17'0 0.0
2018-May-22 13:58N 30°06' W 093°17'0 0.0
2018-May-22 13:28N 30°06' W 093°17'0 0.0
2018-May-22 12:58N 30°06' W 093°17'0 0.0
2018-May-22 12:28N 30°06' W 093°17'0 0.0
2018-May-22 11:55N 30°06' W 093°17'0 0.0
2018-May-22 11:25N 30°06' W 093°17'0 0.0
2018-May-22 10:52N 30°06' W 093°17'0 0.0
2018-May-22 10:28N 30°06' W 093°17'0 0.0
2018-May-22 09:58N 30°06' W 093°17'0 0.0
2018-May-22 09:28N 30°06' W 093°17'0 0.0
2018-May-22 08:58N 30°06' W 093°17'0 0.0
2018-May-22 08:28N 30°06' W 093°17'0 0.0
2018-May-22 07:58N 30°06' W 093°17'0 0.0
2018-May-22 07:28N 30°06' W 093°17'0 0.0
2018-May-22 06:59N 30°06' W 093°17'2 5.0
2018-May-22 06:30N 30°07' W 093°20'3 6.1
2018-May-22 06:00N 30°10' W 093°19'0 0.3
2018-May-22 05:30N 30°11' W 093°19'0 0.4
2018-May-22 05:00N 30°11' W 093°19'0 0.7
2018-May-22 04:30N 30°11' W 093°19'1 2.0
2018-May-22 03:59N 30°12' W 093°18'0 0.0
2018-May-22 03:29N 30°12' W 093°18'0 0.0
2018-May-22 02:59N 30°12' W 093°18'0 0.0
2018-May-22 02:29N 30°12' W 093°18'0 0.0
2018-May-22 01:59N 30°12' W 093°18'0 0.0
2018-May-22 01:29N 30°12' W 093°18'0 0.0
2018-May-22 00:59N 30°12' W 093°18'0 0.0
2018-May-22 00:29N 30°12' W 093°18'0 0.0
2018-May-21 23:59N 30°12' W 093°18'0 0.0
2018-May-21 23:29N 30°12' W 093°18'0 0.0
2018-May-21 22:56N 30°12' W 093°18'0 0.0
2018-May-21 22:29N 30°12' W 093°18'0 0.0
2018-May-21 21:56N 30°12' W 093°18'0 0.0
2018-May-21 21:29N 30°12' W 093°18'0 0.0
2018-May-21 20:59N 30°12' W 093°18'0 0.8
2018-May-21 20:30N 30°11' W 093°18'2 4.9
2018-May-21 20:01N 30°09' W 093°20'1 2.8
2018-May-21 19:31N 30°11' W 093°19'0 0.0
2018-May-21 19:01N 30°11' W 093°19'0 0.0
2018-May-21 18:30N 30°11' W 093°19'1 2.9
2018-May-21 18:00N 30°12' W 093°18'0 0.0
2018-May-21 17:28N 30°12' W 093°18'0 0.0
2018-May-21 16:58N 30°12' W 093°18'0 0.0
2018-May-21 16:28N 30°12' W 093°18'0 0.0
2018-May-21 15:58N 30°12' W 093°18'0 0.0
2018-May-21 15:07N 30°12' W 093°18'1 7.7
2018-May-21 15:00N 30°11' W 093°18'3 5.4
2018-May-21 14:30N 30°09' W 093°20'1 1.8
2018-May-21 14:00N 30°09' W 093°20'0 0.0
2018-May-21 13:30N 30°09' W 093°20'4 7.5
2018-May-21 13:00N 30°06' W 093°20'2 3.7
2018-May-21 12:29N 30°06' W 093°17'0 0.0
2018-May-21 11:59N 30°06' W 093°17'0 0.0
2018-May-21 11:29N 30°06' W 093°17'0 0.0
2018-May-21 10:59N 30°06' W 093°17'0 0.0
2018-May-21 10:29N 30°06' W 093°17'0 0.0
2018-May-21 09:59N 30°06' W 093°17'0 0.0
2018-May-21 09:29N 30°06' W 093°17'0 0.0
2018-May-21 08:59N 30°06' W 093°17'0 0.0
2018-May-21 08:29N 30°06' W 093°17'0 0.0
2018-May-21 07:56N 30°06' W 093°17'0 0.0
2018-May-21 07:29N 30°06' W 093°17'0 0.0
2018-May-21 06:59N 30°06' W 093°17'0 0.0
2018-May-21 06:29N 30°06' W 093°17'0 0.0
2018-May-21 05:56N 30°06' W 093°17'0 0.0
2018-May-21 05:29N 30°06' W 093°17'0 0.0
2018-May-21 04:59N 30°06' W 093°17'0 0.0
2018-May-21 04:29N 30°06' W 093°17'0 0.0
2018-May-21 03:59N 30°06' W 093°17'0 0.0
2018-May-21 03:29N 30°06' W 093°17'0 0.0
2018-May-21 02:59N 30°06' W 093°17'0 0.0
2018-May-21 02:29N 30°06' W 093°17'0 0.0
2018-May-21 01:59N 30°06' W 093°17'0 0.0
2018-May-21 01:29N 30°06' W 093°17'0 0.0
2018-May-21 00:59N 30°06' W 093°17'0 0.0
2018-May-21 00:29N 30°06' W 093°17'0 0.0
2018-May-20 23:59N 30°06' W 093°17'0 0.0
2018-May-20 23:29N 30°06' W 093°17'0 0.0
2018-May-20 22:59N 30°06' W 093°17'0 0.0
2018-May-20 22:29N 30°06' W 093°17'0 0.0
2018-May-20 21:59N 30°06' W 093°17'0 0.0
2018-May-20 21:29N 30°06' W 093°17'0 0.0
2018-May-20 20:59N 30°06' W 093°17'0 0.0
2018-May-20 20:29N 30°06' W 093°17'0 0.0
2018-May-20 19:59N 30°06' W 093°17'0 0.0
2018-May-20 19:29N 30°06' W 093°17'0 0.0
2018-May-20 18:59N 30°06' W 093°17'0 0.0
2018-May-20 18:29N 30°06' W 093°17'0 0.0
2018-May-20 17:59N 30°06' W 093°17'0 0.0
2018-May-20 17:29N 30°06' W 093°17'0 0.0
2018-May-20 16:59N 30°06' W 093°17'0 0.0
2018-May-20 16:29N 30°06' W 093°17'0 0.0
2018-May-20 15:59N 30°06' W 093°17'0 0.0
2018-May-20 15:29N 30°06' W 093°17'0 0.0
2018-May-20 14:59N 30°06' W 093°17'0 0.0
2018-May-20 14:29N 30°06' W 093°17'0 0.0
2018-May-20 13:59N 30°06' W 093°17'0 0.0
2018-May-20 13:29N 30°06' W 093°17'0 0.0
2018-May-20 12:59N 30°06' W 093°17'0 0.0
2018-May-20 12:29N 30°06' W 093°17'0 0.0
2018-May-20 11:59N 30°06' W 093°17'0 0.0
2018-May-20 11:29N 30°06' W 093°17'0 0.0
2018-May-20 10:59N 30°06' W 093°17'0 0.0
2018-May-20 10:29N 30°06' W 093°17'0 0.0
2018-May-20 09:59N 30°06' W 093°17'0 0.0
2018-May-20 09:29N 30°06' W 093°17'0 0.0
2018-May-20 08:59N 30°06' W 093°17'0 0.0
2018-May-20 08:29N 30°06' W 093°17'0 0.0
2018-May-20 07:59N 30°06' W 093°17'0 0.0
2018-May-20 07:29N 30°06' W 093°17'0 0.0
2018-May-20 06:56N 30°06' W 093°17'0 0.0
2018-May-20 06:29N 30°06' W 093°17'0 0.0
2018-May-20 05:59N 30°06' W 093°17'0 0.0
2018-May-20 05:29N 30°06' W 093°17'1 2.5
2018-May-20 05:00N 30°06' W 093°19'3 5.2
2018-May-20 04:30N 30°09' W 093°20'1 1.4
2018-May-20 04:00N 30°09' W 093°20'0 0.2
2018-May-20 03:30N 30°09' W 093°20'0 0.0
2018-May-20 03:00N 30°09' W 093°20'3 6.1
2018-May-20 02:30N 30°12' W 093°18'2 4.1
2018-May-20 01:59N 30°13' W 093°15'0 0.0
2018-May-20 01:26N 30°13' W 093°15'0 0.0
2018-May-20 00:51N 30°13' W 093°15'2 5.9
2018-May-20 00:30N 30°12' W 093°17'3 5.5
2018-May-19 23:58N 30°09' W 093°20'0 0.0
2018-May-19 23:30N 30°09' W 093°20'0 0.7
2018-May-19 23:00N 30°09' W 093°20'3 5.1
2018-May-19 22:30N 30°07' W 093°20'3 6.3
2018-May-19 22:00N 30°04' W 093°20'0 1.0
2018-May-19 21:30N 30°04' W 093°20'3 6.1
2018-May-19 21:00N 30°06' W 093°17'0 0.0
2018-May-19 20:28N 30°06' W 093°17'0 0.0
2018-May-19 19:58N 30°06' W 093°17'0 0.0
2018-May-19 19:30N 30°06' W 093°17'2 4.7
2018-May-19 19:00N 30°07' W 093°20'3 6.5
2018-May-19 18:30N 30°11' W 093°19'0 0.1
2018-May-19 18:00N 30°11' W 093°19'1 1.6
2018-May-19 17:30N 30°11' W 093°18'0 0.3
2018-May-19 17:01N 30°11' W 093°18'1 1.1
2018-May-19 16:30N 30°11' W 093°19'1 2.2
2018-May-19 16:00N 30°11' W 093°18'0 0.0
2018-May-19 15:29N 30°11' W 093°18'0 0.0
2018-May-19 14:59N 30°11' W 093°18'0 0.0
2018-May-19 14:29N 30°11' W 093°18'0 0.0
2018-May-19 13:59N 30°11' W 093°18'0 0.0
2018-May-19 13:29N 30°11' W 093°18'0 0.0
2018-May-19 12:56N 30°11' W 093°18'0 0.0
2018-May-19 12:26N 30°11' W 093°18'0 0.0
2018-May-19 11:59N 30°11' W 093°18'0 0.0
2018-May-19 11:29N 30°11' W 093°18'0 0.0
2018-May-19 10:59N 30°11' W 093°18'0 0.0
2018-May-19 10:29N 30°11' W 093°18'0 0.0
2018-May-19 09:59N 30°11' W 093°18'0 0.0
2018-May-19 09:29N 30°11' W 093°18'0 0.0
2018-May-19 08:59N 30°11' W 093°18'0 0.0
2018-May-19 08:29N 30°11' W 093°18'0 0.0
2018-May-19 07:59N 30°11' W 093°18'0 0.0
2018-May-19 07:29N 30°11' W 093°18'0 0.0
2018-May-19 06:59N 30°11' W 093°18'0 0.0
2018-May-19 06:29N 30°11' W 093°18'0 0.0
2018-May-19 05:59N 30°11' W 093°18'0 0.0
2018-May-19 05:26N 30°11' W 093°18'0 0.0
2018-May-19 04:59N 30°11' W 093°18'0 0.0
2018-May-19 04:26N 30°11' W 093°18'0 0.0
2018-May-19 03:59N 30°11' W 093°18'2 3.5
2018-May-19 03:31N 30°10' W 093°19'1 1.9
2018-May-19 03:01N 30°09' W 093°20'0 0.0
2018-May-19 02:31N 30°09' W 093°20'1 2.5
2018-May-19 02:01N 30°08' W 093°20'3 5.4
2018-May-19 01:31N 30°05' W 093°19'3 5.4
2018-May-19 01:01N 30°03' W 093°20'3 5.0
2018-May-19 00:31N 30°05' W 093°20'4 8.4
2018-May-19 00:00N 30°09' W 093°20'4 8.4
2018-May-18 23:31N 30°12' W 093°16'1 0.4
2018-May-18 21:39N 30°13' W 093°15'0 0.0
2018-May-18 20:42N 30°13' W 093°15'0 0.0
2018-May-18 20:06N 30°13' W 093°15'0 0.0
2018-May-18 19:57N 30°13' W 093°15'0 0.0
2018-May-18 19:27N 30°13' W 093°15'0 0.0
2018-May-18 18:57N 30°13' W 093°15'0 0.0
2018-May-18 18:27N 30°13' W 093°15'0 0.0
2018-May-18 17:57N 30°13' W 093°15'0 0.0
2018-May-18 16:39N 30°13' W 093°15'0 0.0
2018-May-18 16:27N 30°13' W 093°15'0 0.0
2018-May-18 15:45N 30°13' W 093°15'0 0.0
2018-May-18 15:27N 30°13' W 093°15'0 0.0
2018-May-18 15:00N 30°13' W 093°15'0 0.0
2018-May-18 14:27N 30°13' W 093°15'0 0.0
2018-May-18 12:45N 30°13' W 093°15'0 0.0
2018-May-18 10:42N 30°13' W 093°15'0 0.0
2018-May-18 10:30N 30°13' W 093°15'0 0.0
2018-May-18 09:51N 30°13' W 093°15'0 0.0
2018-May-18 09:30N 30°13' W 093°15'0 0.0
2018-May-18 09:00N 30°13' W 093°15'0 0.0
2018-May-18 08:27N 30°13' W 093°15'0 0.0
2018-May-18 08:00N 30°13' W 093°15'0 0.0
2018-May-18 07:30N 30°13' W 093°15'0 0.0
2018-May-18 07:00N 30°13' W 093°15'0 0.0
2018-May-18 06:30N 30°13' W 093°15'0 0.0
2018-May-18 06:00N 30°13' W 093°15'0 0.0
2018-May-18 05:30N 30°13' W 093°15'0 0.0
2018-May-18 05:00N 30°13' W 093°15'0 0.0
2018-May-18 04:27N 30°13' W 093°15'0 0.0
2018-May-18 03:57N 30°13' W 093°15'0 0.0
2018-May-18 03:30N 30°13' W 093°15'0 0.0
2018-May-18 00:45N 30°13' W 093°15'0 0.0
2018-May-18 00:15N 30°13' W 093°15'0 0.0
2018-May-17 23:51N 30°13' W 093°15'0 0.0
2018-May-17 23:30N 30°13' W 093°15'0 0.0
2018-May-17 22:51N 30°13' W 093°15'0 0.8
2018-May-17 22:30N 30°13' W 093°16'1 1.6
2018-May-17 22:01N 30°14' W 093°15'0 0.7
2018-May-17 21:31N 30°13' W 093°15'1 1.0
2018-May-17 21:00N 30°13' W 093°16'0 0.3
2018-May-17 19:32N 30°13' W 093°15'0 0.0
2018-May-17 19:26N 30°13' W 093°15'0 0.0
2018-May-17 18:29N 30°13' W 093°15'0 0.0
2018-May-17 17:56N 30°13' W 093°15'0 0.0
2018-May-17 16:38N 30°13' W 093°15'0 0.0
2018-May-17 14:20N 30°13' W 093°15'0 0.0
2018-May-17 12:18N 30°13' W 093°15'0 1.1
2018-May-17 11:58N 30°13' W 093°16'2 3.7
2018-May-17 11:30N 30°12' W 093°17'3 6.4
2018-May-17 11:00N 30°09' W 093°20'2 4.4
2018-May-17 10:30N 30°07' W 093°20'2 3.3
2018-May-17 10:00N 30°06' W 093°19'2 3.6
2018-May-17 09:29N 30°06' W 093°17'0 0.0
2018-May-17 08:59N 30°06' W 093°17'0 0.0
2018-May-17 08:29N 30°06' W 093°17'0 0.0
2018-May-17 07:59N 30°06' W 093°17'0 0.0
2018-May-17 07:29N 30°06' W 093°17'0 0.0
2018-May-17 06:59N 30°06' W 093°17'0 0.0
2018-May-17 06:29N 30°06' W 093°17'0 0.0
2018-May-17 05:59N 30°06' W 093°17'0 0.0
2018-May-17 05:29N 30°06' W 093°17'0 0.0
2018-May-17 04:59N 30°06' W 093°17'0 0.0
2018-May-17 04:29N 30°06' W 093°17'0 0.0
2018-May-17 03:56N 30°06' W 093°17'  
Track history (hours):
 
Tides and Currents Weather Stations Pressure Air Temp Water Temp Dewpoint Dewpoint Depression Visibility Wind Speed Wind Dir Waves Ship Positions

Energy Zeus

Owner: Seabulk Towing Services, Inc., Fort Lauderdale, FL. More information available from US FCC via Universal Licensing System and Coast Guard Vessel Documentation Center.

Last reported at 2018-May-27 03:30 UTC. Time now 2018-May-27 03:35 UTC.
Position N 30°13' W 093°15'.

Length 30 m; draft 4 m.

Type: Tug. MMSI: 367138360.

Date/timePositionNaut miles runAvg speedWind from/ knotsBaromVisibWave heightAir tempDewpointWater temp
2018-May-27 03:30N 30°13' W 093°15'0 0.0
2018-May-27 03:00N 30°13' W 093°15'0 0.0
2018-May-27 02:30N 30°13' W 093°15'0 0.0
2018-May-27 02:00N 30°13' W 093°15'0 0.0
2018-May-27 01:30N 30°13' W 093°15'0 0.0
2018-May-27 00:57N 30°13' W 093°15'0 0.0
2018-May-27 00:30N 30°13' W 093°15'0 0.0
2018-May-27 00:00N 30°13' W 093°15'0 0.0
2018-May-26 23:30N 30°13' W 093°15'3 6.7
2018-May-26 23:00N 30°11' W 093°19'2 3.8
2018-May-26 22:30N 30°09' W 093°20'0 0.0
2018-May-26 22:00N 30°09' W 093°20'1 2.4
2018-May-26 21:30N 30°08' W 093°20'3 5.4
2018-May-26 21:00N 30°05' W 093°19'2 4.4
2018-May-26 20:30N 30°03' W 093°20'2 3.9
2018-May-26 20:00N 30°05' W 093°20'2 4.4
2018-May-26 19:30N 30°06' W 093°17'0 0.0
2018-May-26 19:00N 30°06' W 093°17'0 0.0
2018-May-26 18:30N 30°06' W 093°17'0 0.0
2018-May-26 17:59N 30°06' W 093°17'0 0.9
2018-May-26 17:30N 30°07' W 093°18'2 4.8
2018-May-26 17:00N 30°08' W 093°20'1 2.7
2018-May-26 16:30N 30°10' W 093°20'0 0.1
2018-May-26 16:00N 30°10' W 093°20'1 2.0
2018-May-26 15:30N 30°09' W 093°20'3 5.5
2018-May-26 15:00N 30°06' W 093°20'2 4.1
2018-May-26 14:30N 30°04' W 093°20'0 0.1
2018-May-26 14:00N 30°04' W 093°20'1 2.2
2018-May-26 13:30N 30°05' W 093°20'3 5.0
2018-May-26 13:00N 30°06' W 093°17'0 0.0
2018-May-26 12:29N 30°06' W 093°17'0 0.0
2018-May-26 11:57N 30°06' W 093°17'0 0.0
2018-May-26 11:30N 30°06' W 093°17'0 0.0
2018-May-26 11:00N 30°06' W 093°17'0 0.0
2018-May-26 10:30N 30°06' W 093°17'0 0.0
2018-May-26 10:00N 30°06' W 093°17'0 0.0
2018-May-26 09:30N 30°06' W 093°17'0 0.0
2018-May-26 09:00N 30°06' W 093°17'0 0.0
2018-May-26 08:30N 30°06' W 093°17'0 0.0
2018-May-26 08:00N 30°06' W 093°17'0 0.0
2018-May-26 07:27N 30°06' W 093°17'0 0.0
2018-May-26 07:00N 30°06' W 093°17'0 0.0
2018-May-26 06:30N 30°06' W 093°17'0 0.0
2018-May-26 05:30N 30°06' W 093°17'0 0.0
2018-May-26 05:00N 30°06' W 093°17'0 0.0
2018-May-26 04:30N 30°06' W 093°17'0 0.0
2018-May-26 04:00N 30°06' W 093°17'0 0.0
2018-May-26 03:30N 30°06' W 093°17'0 0.0
2018-May-26 03:00N 30°06' W 093°17'0 0.0
2018-May-26 02:30N 30°06' W 093°17'2 3.4
2018-May-26 02:00N 30°06' W 093°19'4 7.6
2018-May-26 01:30N 30°09' W 093°20'4 7.4
2018-May-26 01:00N 30°12' W 093°17'1 1.8
2018-May-26 00:25N 30°13' W 093°17'0 0.1
2018-May-26 00:00N 30°13' W 093°17'1 2.5
2018-May-25 23:30N 30°13' W 093°15'0 0.0
2018-May-25 23:00N 30°13' W 093°15'0 0.5
2018-May-25 22:20N 30°13' W 093°15'0 0.0
2018-May-25 21:56N 30°13' W 093°15'0 0.0
2018-May-25 21:29N 30°13' W 093°15'0 0.0
2018-May-25 20:50N 30°13' W 093°15'0 0.0
2018-May-25 20:11N 30°13' W 093°15'0 0.0
2018-May-25 19:53N 30°13' W 093°15'0 0.0
2018-May-25 16:39N 30°13' W 093°15'1 6.3
2018-May-25 16:30N 30°12' W 093°16'4 7.2
2018-May-25 16:00N 30°10' W 093°19'0 0.1
2018-May-25 15:30N 30°10' W 093°19'0 1.0
2018-May-25 15:01N 30°11' W 093°19'0 1.0
2018-May-25 14:30N 30°10' W 093°19'4 7.1
2018-May-25 14:01N 30°07' W 093°20'2 4.4
2018-May-25 13:30N 30°06' W 093°17'0 0.0
2018-May-25 13:00N 30°06' W 093°17'0 0.0
2018-May-25 12:30N 30°06' W 093°17'0 0.0
2018-May-25 12:00N 30°06' W 093°17'0 0.0
2018-May-25 11:30N 30°06' W 093°17'0 0.0
2018-May-25 10:57N 30°06' W 093°17'0 0.0
2018-May-25 10:30N 30°06' W 093°17'0 0.0
2018-May-25 10:00N 30°06' W 093°17'0 0.0
2018-May-25 09:30N 30°06' W 093°17'0 0.0
2018-May-25 09:00N 30°06' W 093°17'0 0.0
2018-May-25 08:30N 30°06' W 093°17'0 0.0
2018-May-25 08:00N 30°06' W 093°17'0 0.0
2018-May-25 07:30N 30°06' W 093°17'0 0.0
2018-May-25 07:00N 30°06' W 093°17'0 0.0
2018-May-25 06:30N 30°06' W 093°17'0 0.0
2018-May-25 06:00N 30°06' W 093°17'0 0.0
2018-May-25 05:30N 30°06' W 093°17'0 0.0
2018-May-25 05:00N 30°06' W 093°17'0 0.0
2018-May-25 04:30N 30°06' W 093°17'0 0.0
2018-May-25 04:00N 30°06' W 093°17'0 0.0
2018-May-25 03:30N 30°06' W 093°17'0 0.0
2018-May-25 03:00N 30°06' W 093°17'0 0.0
2018-May-25 02:30N 30°06' W 093°17'0 0.0
2018-May-25 02:00N 30°06' W 093°17'0 0.0
2018-May-25 01:30N 30°06' W 093°17'0 0.0
2018-May-25 01:00N 30°06' W 093°17'0 0.0
2018-May-25 00:30N 30°06' W 093°17'0 0.0
2018-May-25 00:00N 30°06' W 093°17'0 0.0
2018-May-24 23:30N 30°06' W 093°17'0 0.0
2018-May-24 23:00N 30°06' W 093°17'0 0.1
2018-May-24 22:30N 30°07' W 093°17'0 0.5
2018-May-24 22:00N 30°07' W 093°18'1 2.5
2018-May-24 21:30N 30°06' W 093°19'3 6.3
2018-May-24 21:00N 30°09' W 093°20'4 8.0
2018-May-24 20:30N 30°12' W 093°17'2 3.2
2018-May-24 19:58N 30°13' W 093°15'0 0.0
2018-May-24 19:25N 30°13' W 093°15'0 0.0
2018-May-24 18:52N 30°13' W 093°15'0 0.0
2018-May-24 18:28N 30°13' W 093°15'0 0.0
2018-May-24 17:55N 30°13' W 093°15'0 0.0
2018-May-24 17:16N 30°13' W 093°15'0 0.0
2018-May-24 16:58N 30°13' W 093°15'0 0.0
2018-May-24 16:28N 30°13' W 093°15'0 0.0
2018-May-24 15:55N 30°13' W 093°15'0 0.0
2018-May-24 15:28N 30°13' W 093°15'0 0.0
2018-May-24 14:58N 30°13' W 093°15'0 0.0
2018-May-24 14:28N 30°13' W 093°15'0 0.0
2018-May-24 13:58N 30°13' W 093°15'0 0.0
2018-May-24 08:37N 30°13' W 093°15'0 0.0
2018-May-24 03:49N 30°13' W 093°15'0 0.0
2018-May-24 03:19N 30°13' W 093°15'0 1.3
2018-May-24 03:00N 30°13' W 093°16'4 7.7
2018-May-24 02:30N 30°10' W 093°19'0 0.0
2018-May-24 02:00N 30°10' W 093°19'0 0.6
2018-May-24 01:30N 30°11' W 093°19'0 0.6
2018-May-24 01:00N 30°10' W 093°19'2 4.8
2018-May-24 00:30N 30°08' W 093°20'0 1.0
2018-May-24 00:00N 30°08' W 093°20'2 3.6
2018-May-23 23:30N 30°06' W 093°19'1 2.1
2018-May-23 22:58N 30°06' W 093°17'0 0.0
2018-May-23 22:28N 30°06' W 093°17'0 0.0
2018-May-23 21:58N 30°06' W 093°17'0 0.0
2018-May-23 21:28N 30°06' W 093°17'0 0.0
2018-May-23 20:58N 30°06' W 093°17'0 0.0
2018-May-23 20:28N 30°06' W 093°17'0 0.0
2018-May-23 19:58N 30°06' W 093°17'0 0.0
2018-May-23 19:28N 30°06' W 093°17'0 0.0
2018-May-23 18:58N 30°06' W 093°17'0 0.0
2018-May-23 18:28N 30°06' W 093°17'0 0.0
2018-May-23 17:58N 30°06' W 093°17'0 0.0
2018-May-23 17:28N 30°06' W 093°17'0 0.0
2018-May-23 16:58N 30°06' W 093°17'0 0.0
2018-May-23 16:28N 30°06' W 093°17'0 0.0
2018-May-23 15:58N 30°06' W 093°17'0 0.0
2018-May-23 15:28N 30°06' W 093°17'0 0.0
2018-May-23 14:58N 30°06' W 093°17'0 0.0
2018-May-23 14:28N 30°06' W 093°17'0 0.0
2018-May-23 13:58N 30°06' W 093°17'0 0.0
2018-May-23 13:28N 30°06' W 093°17'0 0.0
2018-May-23 12:58N 30°06' W 093°17'0 0.0
2018-May-23 12:28N 30°06' W 093°17'0 0.0
2018-May-23 11:58N 30°06' W 093°17'0 0.0
2018-May-23 11:28N 30°06' W 093°17'0 0.0
2018-May-23 10:58N 30°06' W 093°17'0 0.0
2018-May-23 10:28N 30°06' W 093°17'0 0.0
2018-May-23 09:58N 30°06' W 093°17'0 0.0
2018-May-23 09:28N 30°06' W 093°17'0 0.0
2018-May-23 08:58N 30°06' W 093°17'0 0.0
2018-May-23 08:28N 30°06' W 093°17'0 0.0
2018-May-23 07:58N 30°06' W 093°17'0 0.0
2018-May-23 07:28N 30°06' W 093°17'0 0.0
2018-May-23 06:58N 30°06' W 093°17'0 0.0
2018-May-23 06:28N 30°06' W 093°17'0 0.0
2018-May-23 05:58N 30°06' W 093°17'0 0.0
2018-May-23 05:28N 30°06' W 093°17'0 0.0
2018-May-23 04:58N 30°06' W 093°17'0 0.0
2018-May-23 04:28N 30°06' W 093°17'0 0.0
2018-May-23 03:58N 30°06' W 093°17'0 0.0
2018-May-23 03:28N 30°06' W 093°17'0 0.0
2018-May-23 02:58N 30°06' W 093°17'0 0.0
2018-May-23 02:28N 30°06' W 093°17'0 0.0
2018-May-23 01:55N 30°06' W 093°17'0 0.0
2018-May-23 01:28N 30°06' W 093°17'0 0.0
2018-May-23 00:58N 30°06' W 093°17'0 0.0
2018-May-23 00:28N 30°06' W 093°17'0 0.0
2018-May-22 23:55N 30°06' W 093°17'0 0.0
2018-May-22 23:28N 30°06' W 093°17'0 0.0
2018-May-22 22:58N 30°06' W 093°17'0 0.0
2018-May-22 22:25N 30°06' W 093°17'0 0.0
2018-May-22 21:58N 30°06' W 093°17'0 0.0
2018-May-22 21:28N 30°06' W 093°17'0 0.0
2018-May-22 20:58N 30°06' W 093°17'0 0.0
2018-May-22 20:28N 30°06' W 093°17'0 0.0
2018-May-22 19:58N 30°06' W 093°17'0 0.0
2018-May-22 19:28N 30°06' W 093°17'0 0.0
2018-May-22 18:58N 30°06' W 093°17'0 0.0
2018-May-22 18:28N 30°06' W 093°17'0 0.0
2018-May-22 17:58N 30°06' W 093°17'0 0.0
2018-May-22 17:28N 30°06' W 093°17'0 0.0
2018-May-22 16:58N 30°06' W 093°17'0 0.0
2018-May-22 16:28N 30°06' W 093°17'0 0.0
2018-May-22 15:58N 30°06' W 093°17'0 0.0
2018-May-22 15:28N 30°06' W 093°17'0 0.0
2018-May-22 14:58N 30°06' W 093°17'0 0.0
2018-May-22 14:28N 30°06' W 093°17'0 0.0
2018-May-22 13:58N 30°06' W 093°17'0 0.0
2018-May-22 13:28N 30°06' W 093°17'0 0.0
2018-May-22 12:58N 30°06' W 093°17'0 0.0
2018-May-22 12:28N 30°06' W 093°17'0 0.0
2018-May-22 11:55N 30°06' W 093°17'0 0.0
2018-May-22 11:25N 30°06' W 093°17'0 0.0
2018-May-22 10:52N 30°06' W 093°17'0 0.0
2018-May-22 10:28N 30°06' W 093°17'0 0.0
2018-May-22 09:58N 30°06' W 093°17'0 0.0
2018-May-22 09:28N 30°06' W 093°17'0 0.0
2018-May-22 08:58N 30°06' W 093°17'0 0.0
2018-May-22 08:28N 30°06' W 093°17'0 0.0
2018-May-22 07:58N 30°06' W 093°17'0 0.0
2018-May-22 07:28N 30°06' W 093°17'0 0.0
2018-May-22 06:59N 30°06' W 093°17'2 5.0
2018-May-22 06:30N 30°07' W 093°20'3 6.1
2018-May-22 06:00N 30°10' W 093°19'0 0.3
2018-May-22 05:30N 30°11' W 093°19'0 0.4
2018-May-22 05:00N 30°11' W 093°19'0 0.7
2018-May-22 04:30N 30°11' W 093°19'1 2.0
2018-May-22 03:59N 30°12' W 093°18'0 0.0
2018-May-22 03:29N 30°12' W 093°18'0 0.0
2018-May-22 02:59N 30°12' W 093°18'0 0.0
2018-May-22 02:29N 30°12' W 093°18'0 0.0
2018-May-22 01:59N 30°12' W 093°18'0 0.0
2018-May-22 01:29N 30°12' W 093°18'0 0.0
2018-May-22 00:59N 30°12' W 093°18'0 0.0
2018-May-22 00:29N 30°12' W 093°18'0 0.0
2018-May-21 23:59N 30°12' W 093°18'0 0.0
2018-May-21 23:29N 30°12' W 093°18'0 0.0
2018-May-21 22:56N 30°12' W 093°18'0 0.0
2018-May-21 22:29N 30°12' W 093°18'0 0.0
2018-May-21 21:56N 30°12' W 093°18'0 0.0
2018-May-21 21:29N 30°12' W 093°18'0 0.0
2018-May-21 20:59N 30°12' W 093°18'0 0.8
2018-May-21 20:30N 30°11' W 093°18'2 4.9
2018-May-21 20:01N 30°09' W 093°20'1 2.8
2018-May-21 19:31N 30°11' W 093°19'0 0.0
2018-May-21 19:01N 30°11' W 093°19'0 0.0
2018-May-21 18:30N 30°11' W 093°19'1 2.9
2018-May-21 18:00N 30°12' W 093°18'0 0.0
2018-May-21 17:28N 30°12' W 093°18'0 0.0
2018-May-21 16:58N 30°12' W 093°18'0 0.0
2018-May-21 16:28N 30°12' W 093°18'0 0.0
2018-May-21 15:58N 30°12' W 093°18'0 0.0
2018-May-21 15:07N 30°12' W 093°18'1 7.7
2018-May-21 15:00N 30°11' W 093°18'3 5.4
2018-May-21 14:30N 30°09' W 093°20'1 1.8
2018-May-21 14:00N 30°09' W 093°20'0 0.0
2018-May-21 13:30N 30°09' W 093°20'4 7.5
2018-May-21 13:00N 30°06' W 093°20'2 3.7
2018-May-21 12:29N 30°06' W 093°17'0 0.0
2018-May-21 11:59N 30°06' W 093°17'0 0.0
2018-May-21 11:29N 30°06' W 093°17'0 0.0
2018-May-21 10:59N 30°06' W 093°17'0 0.0
2018-May-21 10:29N 30°06' W 093°17'0 0.0
2018-May-21 09:59N 30°06' W 093°17'0 0.0
2018-May-21 09:29N 30°06' W 093°17'0 0.0
2018-May-21 08:59N 30°06' W 093°17'0 0.0
2018-May-21 08:29N 30°06' W 093°17'0 0.0
2018-May-21 07:56N 30°06' W 093°17'0 0.0
2018-May-21 07:29N 30°06' W 093°17'0 0.0
2018-May-21 06:59N 30°06' W 093°17'0 0.0
2018-May-21 06:29N 30°06' W 093°17'0 0.0
2018-May-21 05:56N 30°06' W 093°17'0 0.0
2018-May-21 05:29N 30°06' W 093°17'0 0.0
2018-May-21 04:59N 30°06' W 093°17'0 0.0
2018-May-21 04:29N 30°06' W 093°17'0 0.0
2018-May-21 03:59N 30°06' W 093°17'0 0.0
2018-May-21 03:29N 30°06' W 093°17'0 0.0
2018-May-21 02:59N 30°06' W 093°17'0 0.0
2018-May-21 02:29N 30°06' W 093°17'0 0.0
2018-May-21 01:59N 30°06' W 093°17'0 0.0
2018-May-21 01:29N 30°06' W 093°17'0 0.0
2018-May-21 00:59N 30°06' W 093°17'0 0.0
2018-May-21 00:29N 30°06' W 093°17'0 0.0
2018-May-20 23:59N 30°06' W 093°17'0 0.0
2018-May-20 23:29N 30°06' W 093°17'0 0.0
2018-May-20 22:59N 30°06' W 093°17'0 0.0
2018-May-20 22:29N 30°06' W 093°17'0 0.0
2018-May-20 21:59N 30°06' W 093°17'0 0.0
2018-May-20 21:29N 30°06' W 093°17'0 0.0
2018-May-20 20:59N 30°06' W 093°17'0 0.0
2018-May-20 20:29N 30°06' W 093°17'0 0.0
2018-May-20 19:59N 30°06' W 093°17'0 0.0
2018-May-20 19:29N 30°06' W 093°17'0 0.0
2018-May-20 18:59N 30°06' W 093°17'0 0.0
2018-May-20 18:29N 30°06' W 093°17'0 0.0
2018-May-20 17:59N 30°06' W 093°17'0 0.0
2018-May-20 17:29N 30°06' W 093°17'0 0.0
2018-May-20 16:59N 30°06' W 093°17'0 0.0
2018-May-20 16:29N 30°06' W 093°17'0 0.0
2018-May-20 15:59N 30°06' W 093°17'0 0.0
2018-May-20 15:29N 30°06' W 093°17'0 0.0
2018-May-20 14:59N 30°06' W 093°17'0 0.0
2018-May-20 14:29N 30°06' W 093°17'0 0.0
2018-May-20 13:59N 30°06' W 093°17'0 0.0
2018-May-20 13:29N 30°06' W 093°17'0 0.0
2018-May-20 12:59N 30°06' W 093°17'0 0.0
2018-May-20 12:29N 30°06' W 093°17'0 0.0
2018-May-20 11:59N 30°06' W 093°17'0 0.0
2018-May-20 11:29N 30°06' W 093°17'0 0.0
2018-May-20 10:59N 30°06' W 093°17'0 0.0
2018-May-20 10:29N 30°06' W 093°17'0 0.0
2018-May-20 09:59N 30°06' W 093°17'0 0.0
2018-May-20 09:29N 30°06' W 093°17'0 0.0
2018-May-20 08:59N 30°06' W 093°17'0 0.0
2018-May-20 08:29N 30°06' W 093°17'0 0.0
2018-May-20 07:59N 30°06' W 093°17'0 0.0
2018-May-20 07:29N 30°06' W 093°17'0 0.0
2018-May-20 06:56N 30°06' W 093°17'0 0.0
2018-May-20 06:29N 30°06' W 093°17'0 0.0
2018-May-20 05:59N 30°06' W 093°17'0 0.0
2018-May-20 05:29N 30°06' W 093°17'1 2.5
2018-May-20 05:00N 30°06' W 093°19'3 5.2
2018-May-20 04:30N 30°09' W 093°20'1 1.4
2018-May-20 04:00N 30°09' W 093°20'0 0.2
2018-May-20 03:30N 30°09' W 093°20'0 0.0
2018-May-20 03:00N 30°09' W 093°20'3 6.1
2018-May-20 02:30N 30°12' W 093°18'2 4.1
2018-May-20 01:59N 30°13' W 093°15'0 0.0
2018-May-20 01:26N 30°13' W 093°15'0 0.0
2018-May-20 00:51N 30°13' W 093°15'2 5.9
2018-May-20 00:30N 30°12' W 093°17'3 5.5
2018-May-19 23:58N 30°09' W 093°20'0 0.0
2018-May-19 23:30N 30°09' W 093°20'0 0.7
2018-May-19 23:00N 30°09' W 093°20'3 5.1
2018-May-19 22:30N 30°07' W 093°20'3 6.3
2018-May-19 22:00N 30°04' W 093°20'0 1.0
2018-May-19 21:30N 30°04' W 093°20'3 6.1
2018-May-19 21:00N 30°06' W 093°17'0 0.0
2018-May-19 20:28N 30°06' W 093°17'0 0.0
2018-May-19 19:58N 30°06' W 093°17'0 0.0
2018-May-19 19:30N 30°06' W 093°17'2 4.7
2018-May-19 19:00N 30°07' W 093°20'3 6.5
2018-May-19 18:30N 30°11' W 093°19'0 0.1
2018-May-19 18:00N 30°11' W 093°19'1 1.6
2018-May-19 17:30N 30°11' W 093°18'0 0.3
2018-May-19 17:01N 30°11' W 093°18'1 1.1
2018-May-19 16:30N 30°11' W 093°19'1 2.2
2018-May-19 16:00N 30°11' W 093°18'0 0.0
2018-May-19 15:29N 30°11' W 093°18'0 0.0
2018-May-19 14:59N 30°11' W 093°18'0 0.0
2018-May-19 14:29N 30°11' W 093°18'0 0.0
2018-May-19 13:59N 30°11' W 093°18'0 0.0
2018-May-19 13:29N 30°11' W 093°18'0 0.0
2018-May-19 12:56N 30°11' W 093°18'0 0.0
2018-May-19 12:26N 30°11' W 093°18'0 0.0
2018-May-19 11:59N 30°11' W 093°18'0 0.0
2018-May-19 11:29N 30°11' W 093°18'0 0.0
2018-May-19 10:59N 30°11' W 093°18'0 0.0
2018-May-19 10:29N 30°11' W 093°18'0 0.0
2018-May-19 09:59N 30°11' W 093°18'0 0.0
2018-May-19 09:29N 30°11' W 093°18'0 0.0
2018-May-19 08:59N 30°11' W 093°18'0 0.0
2018-May-19 08:29N 30°11' W 093°18'0 0.0
2018-May-19 07:59N 30°11' W 093°18'0 0.0
2018-May-19 07:29N 30°11' W 093°18'0 0.0
2018-May-19 06:59N 30°11' W 093°18'0 0.0
2018-May-19 06:29N 30°11' W 093°18'0 0.0
2018-May-19 05:59N 30°11' W 093°18'0 0.0
2018-May-19 05:26N 30°11' W 093°18'0 0.0
2018-May-19 04:59N 30°11' W 093°18'0 0.0
2018-May-19 04:26N 30°11' W 093°18'0 0.0
2018-May-19 03:59N 30°11' W 093°18'2 3.5
2018-May-19 03:31N 30°10' W 093°19'1 1.9
2018-May-19 03:01N 30°09' W 093°20'0 0.0
2018-May-19 02:31N 30°09' W 093°20'1 2.5
2018-May-19 02:01N 30°08' W 093°20'3 5.4
2018-May-19 01:31N 30°05' W 093°19'3 5.4
2018-May-19 01:01N 30°03' W 093°20'3 5.0
2018-May-19 00:31N 30°05' W 093°20'4 8.4
2018-May-19 00:00N 30°09' W 093°20'4 8.4
2018-May-18 23:31N 30°12' W 093°16'1 0.4
2018-May-18 21:39N 30°13' W 093°15'0 0.0
2018-May-18 20:42N 30°13' W 093°15'0 0.0
2018-May-18 20:06N 30°13' W 093°15'0 0.0
2018-May-18 19:57N 30°13' W 093°15'0 0.0
2018-May-18 19:27N 30°13' W 093°15'0 0.0
2018-May-18 18:57N 30°13' W 093°15'0 0.0
2018-May-18 18:27N 30°13' W 093°15'0 0.0
2018-May-18 17:57N 30°13' W 093°15'0 0.0
2018-May-18 16:39N 30°13' W 093°15'0 0.0
2018-May-18 16:27N 30°13' W 093°15'0 0.0
2018-May-18 15:45N 30°13' W 093°15'0 0.0
2018-May-18 15:27N 30°13' W 093°15'0 0.0
2018-May-18 15:00N 30°13' W 093°15'0 0.0
2018-May-18 14:27N 30°13' W 093°15'0 0.0
2018-May-18 12:45N 30°13' W 093°15'0 0.0
2018-May-18 10:42N 30°13' W 093°15'0 0.0
2018-May-18 10:30N 30°13' W 093°15'0 0.0
2018-May-18 09:51N 30°13' W 093°15'0 0.0
2018-May-18 09:30N 30°13' W 093°15'0 0.0
2018-May-18 09:00N 30°13' W 093°15'0 0.0
2018-May-18 08:27N 30°13' W 093°15'0 0.0
2018-May-18 08:00N 30°13' W 093°15'0 0.0
2018-May-18 07:30N 30°13' W 093°15'0 0.0
2018-May-18 07:00N 30°13' W 093°15'0 0.0
2018-May-18 06:30N 30°13' W 093°15'0 0.0
2018-May-18 06:00N 30°13' W 093°15'0 0.0
2018-May-18 05:30N 30°13' W 093°15'0 0.0
2018-May-18 05:00N 30°13' W 093°15'0 0.0
2018-May-18 04:27N 30°13' W 093°15'0 0.0
2018-May-18 03:57N 30°13' W 093°15'0 0.0
2018-May-18 03:30N 30°13' W 093°15'0 0.0
2018-May-18 00:45N 30°13' W 093°15'0 0.0
2018-May-18 00:15N 30°13' W 093°15'0 0.0
2018-May-17 23:51N 30°13' W 093°15'0 0.0
2018-May-17 23:30N 30°13' W 093°15'0 0.0
2018-May-17 22:51N 30°13' W 093°15'0 0.8
2018-May-17 22:30N 30°13' W 093°16'1 1.6
2018-May-17 22:01N 30°14' W 093°15'0 0.7
2018-May-17 21:31N 30°13' W 093°15'1 1.0
2018-May-17 21:00N 30°13' W 093°16'0 0.3
2018-May-17 19:32N 30°13' W 093°15'0 0.0
2018-May-17 19:26N 30°13' W 093°15'0 0.0
2018-May-17 18:29N 30°13' W 093°15'0 0.0
2018-May-17 17:56N 30°13' W 093°15'0 0.0
2018-May-17 16:38N 30°13' W 093°15'0 0.0
2018-May-17 14:20N 30°13' W 093°15'0 0.0
2018-May-17 12:18N 30°13' W 093°15'0 1.1
2018-May-17 11:58N 30°13' W 093°16'2 3.7
2018-May-17 11:30N 30°12' W 093°17'3 6.4
2018-May-17 11:00N 30°09' W 093°20'2 4.4
2018-May-17 10:30N 30°07' W 093°20'2 3.3
2018-May-17 10:00N 30°06' W 093°19'2 3.6
2018-May-17 09:29N 30°06' W 093°17'0 0.0
2018-May-17 08:59N 30°06' W 093°17'0 0.0
2018-May-17 08:29N 30°06' W 093°17'0 0.0
2018-May-17 07:59N 30°06' W 093°17'0 0.0
2018-May-17 07:29N 30°06' W 093°17'0 0.0
2018-May-17 06:59N 30°06' W 093°17'0 0.0
2018-May-17 06:29N 30°06' W 093°17'0 0.0
2018-May-17 05:59N 30°06' W 093°17'0 0.0
2018-May-17 05:29N 30°06' W 093°17'0 0.0
2018-May-17 04:59N 30°06' W 093°17'0 0.0
2018-May-17 04:29N 30°06' W 093°17'0 0.0
2018-May-17 03:56N 30°06' W 093°17'  

Dump ship's entire track history